createdAt,value
2023-01-09T00:01:31.367Z,96375.16
2023-01-09T00:03:03.059Z,96377.16
2023-01-09T00:04:34.957Z,96371.31
2023-01-09T00:06:06.773Z,96370.50
2023-01-09T00:07:38.534Z,96368.50
2023-01-09T00:09:10.844Z,96374.88
2023-01-09T00:10:42.589Z,96364.84
2023-01-09T00:12:14.171Z,96364.84
2023-01-09T00:13:47.203Z,96355.28
2023-01-09T00:15:18.874Z,96363.47
2023-01-09T00:16:50.665Z,96359.63
2023-01-09T00:18:22.517Z,96367.63
2023-01-09T00:19:54.139Z,96358.81
2023-01-09T00:21:25.845Z,96354.13
2023-01-09T00:22:57.402Z,96351.97
2023-01-09T00:24:29.055Z,96349.63
2023-01-09T00:26:15.405Z,96349.06
2023-01-09T00:27:46.986Z,96350.44
2023-01-09T00:29:21.648Z,96350.78
2023-01-09T00:31:00.722Z,96343.78
2023-01-09T00:32:32.504Z,96349.97
2023-01-09T00:34:06.672Z,96344.22
2023-01-09T00:35:38.270Z,96346.59
2023-01-09T00:37:11.914Z,96342.09
2023-01-09T00:38:43.723Z,96343.41
2023-01-09T00:40:17.105Z,96338.91
2023-01-09T00:41:53.267Z,96344.22
2023-01-09T00:43:30.830Z,96339.03
2023-01-09T00:45:08.097Z,96339.78
2023-01-09T00:46:44.271Z,96344.53
2023-01-09T00:48:26.476Z,96335.66
2023-01-09T00:50:14.812Z,96336.91
2023-01-09T00:51:46.985Z,96339.59
2023-01-09T00:53:23.318Z,96339.78
2023-01-09T00:54:54.980Z,96340.31
2023-01-09T00:56:26.685Z,96332.31
2023-01-09T00:57:58.325Z,96334.91
2023-01-09T00:59:30.240Z,96330.75
2023-01-09T01:01:02.338Z,96335.38
2023-01-09T01:02:34.028Z,96337.69
2023-01-09T01:04:25.701Z,96340.69
2023-01-09T01:06:15.941Z,96335.09
2023-01-09T01:07:47.617Z,96339.50
2023-01-09T01:09:19.260Z,96340.53
2023-01-09T01:10:51.093Z,96340.13
2023-01-09T01:12:22.948Z,96338.97
2023-01-09T01:13:54.604Z,96337.69
2023-01-09T01:15:29.318Z,96343.78
2023-01-09T01:17:00.972Z,96339.19
2023-01-09T01:18:32.632Z,96340.31
2023-01-09T01:20:07.321Z,96348.28
2023-01-09T01:21:38.873Z,96354.09
2023-01-09T01:23:10.848Z,96343.59
2023-01-09T01:24:42.459Z,96352.41
2023-01-09T01:26:16.450Z,96342.25
2023-01-09T01:27:48.065Z,96342.72
2023-01-09T01:29:19.676Z,96342.59
2023-01-09T01:30:51.424Z,96342.66
2023-01-09T01:32:23.555Z,96337.38
2023-01-09T01:33:55.118Z,96341.31
2023-01-09T01:35:26.859Z,96336.69
2023-01-09T01:36:58.445Z,96344.47
2023-01-09T01:38:30.902Z,96335.97
2023-01-09T01:40:03.413Z,96339.13
2023-01-09T01:41:35.039Z,96347.31
2023-01-09T01:43:06.613Z,96337.34
2023-01-09T01:45:09.062Z,96347.94
2023-01-09T01:46:40.679Z,96346.16
2023-01-09T01:48:23.002Z,96360.34
2023-01-09T01:49:55.181Z,96360.56
2023-01-09T01:51:30.855Z,96359.19
2023-01-09T01:53:21.198Z,96357.44
2023-01-09T01:54:53.309Z,96362.19
2023-01-09T01:56:28.940Z,96356.88
2023-01-09T01:58:04.137Z,96351.72
2023-01-09T01:59:50.070Z,96363.16
2023-01-09T02:01:24.521Z,96353.94
2023-01-09T02:02:56.397Z,96345.97
2023-01-09T02:04:30.185Z,96353.00
2023-01-09T02:06:04.861Z,96345.34
2023-01-09T02:07:36.531Z,96340.75
2023-01-09T02:09:09.210Z,96351.38
2023-01-09T02:10:41.665Z,96354.56
2023-01-09T02:12:25.571Z,96357.44
2023-01-09T02:13:58.243Z,96348.31
2023-01-09T02:15:44.034Z,96357.00
2023-01-09T02:17:33.840Z,96348.50
2023-01-09T02:19:42.079Z,96344.41
2023-01-09T02:21:38.258Z,96335.41
2023-01-09T02:24:01.023Z,96346.63
2023-01-09T02:25:54.187Z,96355.00
2023-01-09T02:27:37.878Z,96349.97
2023-01-09T02:29:35.768Z,96355.06
2023-01-09T02:31:21.497Z,96361.16
2023-01-09T02:33:15.999Z,96368.78
2023-01-09T02:35:17.586Z,96367.75
2023-01-09T02:37:07.910Z,96376.06
2023-01-09T02:38:58.337Z,96383.25
2023-01-09T02:40:42.792Z,96390.91
2023-01-09T02:42:19.168Z,96391.22
2023-01-09T02:44:12.745Z,96395.66
2023-01-09T02:45:44.365Z,96413.78
2023-01-09T02:47:15.953Z,96410.88
2023-01-09T02:48:51.739Z,96419.06
2023-01-09T02:50:42.078Z,96423.19
2023-01-09T02:52:41.469Z,96419.94
2023-01-09T02:54:30.982Z,96416.97
2023-01-09T02:56:11.218Z,96418.91
2023-01-09T02:58:11.400Z,96418.31
2023-01-09T03:00:10.818Z,96412.69
2023-01-09T03:02:00.410Z,96414.59
2023-01-09T03:03:54.705Z,96406.09
2023-01-09T03:05:32.753Z,96403.31
2023-01-09T03:07:17.767Z,96398.56
2023-01-09T03:08:54.737Z,96396.78
2023-01-09T03:10:48.687Z,96386.97
2023-01-09T03:12:24.736Z,96393.06
2023-01-09T03:13:58.271Z,96397.41
2023-01-09T03:15:37.016Z,96392.63
2023-01-09T03:17:14.011Z,96397.22
2023-01-09T03:18:48.900Z,96400.25
2023-01-09T03:20:24.458Z,96411.13
2023-01-09T03:21:57.478Z,96419.13
2023-01-09T03:23:45.585Z,96417.56
2023-01-09T03:25:18.355Z,96418.56
2023-01-09T03:26:50.407Z,96419.75
2023-01-09T03:28:29.717Z,96438.34
2023-01-09T03:30:01.455Z,96423.09
2023-01-09T03:31:33.272Z,96427.44
2023-01-09T03:33:04.962Z,96430.75
2023-01-09T03:34:36.575Z,96437.50
2023-01-09T03:36:09.988Z,96450.88
2023-01-09T03:37:41.625Z,96450.25
2023-01-09T03:39:13.212Z,96459.50
2023-01-09T03:40:44.982Z,96456.25
2023-01-09T03:42:16.612Z,96461.75
2023-01-09T03:43:48.533Z,96466.69
2023-01-09T03:45:20.237Z,96461.72
2023-01-09T03:46:51.980Z,96477.28
2023-01-09T03:48:23.567Z,96473.25
2023-01-09T03:49:55.167Z,96481.78
2023-01-09T03:51:26.747Z,96482.78
2023-01-09T03:53:06.168Z,96486.81
2023-01-09T03:54:39.342Z,96486.56
2023-01-09T03:56:10.963Z,96482.78
2023-01-09T03:57:42.636Z,96485.09
2023-01-09T03:59:14.235Z,96490.88
2023-01-09T04:00:48.995Z,96495.44
2023-01-09T04:02:20.727Z,96504.88
2023-01-09T04:03:52.443Z,96519.25
2023-01-09T04:05:24.015Z,96517.91
2023-01-09T04:06:55.616Z,96525.16
2023-01-09T04:08:27.179Z,96533.88
2023-01-09T04:09:58.744Z,96531.91
2023-01-09T04:11:30.318Z,96541.88
2023-01-09T04:13:01.963Z,96539.19
2023-01-09T04:14:33.626Z,96532.38
2023-01-09T04:16:05.684Z,96543.88
2023-01-09T04:17:37.249Z,96549.50
2023-01-09T04:19:08.851Z,96561.72
2023-01-09T04:20:41.071Z,96566.25
2023-01-09T04:22:12.644Z,96569.19
2023-01-09T04:23:45.393Z,96575.47
2023-01-09T04:25:17.037Z,96585.63
2023-01-09T04:26:48.664Z,96591.72
2023-01-09T04:28:20.228Z,96594.44
2023-01-09T04:29:51.836Z,96601.50
2023-01-09T04:31:23.547Z,96602.88
2023-01-09T04:32:55.137Z,96617.75
2023-01-09T04:34:27.518Z,96625.56
2023-01-09T04:35:59.116Z,96633.81
2023-01-09T04:37:30.737Z,96638.09
2023-01-09T04:39:02.836Z,96656.16
2023-01-09T04:40:34.500Z,96650.09
2023-01-09T04:42:06.081Z,96662.38
2023-01-09T04:43:37.782Z,96666.94
2023-01-09T04:45:11.280Z,96658.38
2023-01-09T04:46:42.919Z,96670.22
2023-01-09T04:48:14.551Z,96662.06
2023-01-09T04:49:46.157Z,96670.56
2023-01-09T04:51:17.717Z,96662.59
2023-01-09T04:52:49.361Z,96668.50
2023-01-09T04:54:21.423Z,96674.03
2023-01-09T04:55:52.955Z,96680.09
2023-01-09T04:57:24.723Z,96681.22
2023-01-09T04:58:56.335Z,96685.28
2023-01-09T05:00:28.117Z,96693.59
2023-01-09T05:02:00.254Z,96704.44
2023-01-09T05:03:32.002Z,96701.59
2023-01-09T05:05:04.940Z,96705.91
2023-01-09T05:06:36.832Z,96709.97
2023-01-09T05:08:08.485Z,96714.38
2023-01-09T05:09:40.108Z,96719.41
2023-01-09T05:11:11.816Z,96712.94
2023-01-09T05:12:43.423Z,96706.66
2023-01-09T05:14:15.095Z,96711.78
2023-01-09T05:15:46.666Z,96713.75
2023-01-09T05:17:18.331Z,96712.41
2023-01-09T05:18:50.108Z,96719.84
2023-01-09T05:20:21.788Z,96729.00
2023-01-09T05:21:53.407Z,96728.34
2023-01-09T05:23:24.992Z,96737.47
2023-01-09T05:24:56.949Z,96738.16
2023-01-09T05:26:29.243Z,96745.66
2023-01-09T05:28:01.421Z,96748.38
2023-01-09T05:29:33.121Z,96754.22
2023-01-09T05:31:04.980Z,96768.69
2023-01-09T05:32:36.556Z,96766.06
2023-01-09T05:34:08.175Z,96762.19
2023-01-09T05:35:39.859Z,96773.72
2023-01-09T05:37:11.496Z,96780.19
2023-01-09T05:38:43.328Z,96779.22
2023-01-09T05:40:15.110Z,96776.63
2023-01-09T05:41:46.713Z,96777.44
2023-01-09T05:43:18.279Z,96772.75
2023-01-09T05:44:49.991Z,96779.59
2023-01-09T05:46:21.702Z,96786.22
2023-01-09T05:47:53.424Z,96780.25
2023-01-09T05:49:25.094Z,96777.63
2023-01-09T05:50:56.716Z,96787.66
2023-01-09T05:52:28.447Z,96780.00
2023-01-09T05:54:00.260Z,96786.97
2023-01-09T05:55:31.953Z,96783.88
2023-01-09T05:57:03.622Z,96783.44
2023-01-09T05:58:35.309Z,96783.31
2023-01-09T06:00:07.762Z,96783.78
2023-01-09T06:01:39.373Z,96786.88
2023-01-09T06:03:11.009Z,96787.19
2023-01-09T06:04:43.892Z,96782.34
2023-01-09T06:06:15.455Z,96791.91
2023-01-09T06:07:47.051Z,96789.34
2023-01-09T06:09:18.646Z,96791.94
2023-01-09T06:10:50.341Z,96790.16
2023-01-09T06:12:22.019Z,96790.28
2023-01-09T06:13:53.639Z,96788.66
2023-01-09T06:15:25.271Z,96781.84
2023-01-09T06:16:57.057Z,96782.00
2023-01-09T06:18:28.755Z,96775.34
2023-01-09T06:20:00.468Z,96778.44
2023-01-09T06:21:33.619Z,96777.50
2023-01-09T06:23:05.290Z,96774.91
2023-01-09T06:24:36.898Z,96771.00
2023-01-09T06:26:08.655Z,96787.25
2023-01-09T06:27:40.311Z,96784.00
2023-01-09T06:29:11.969Z,96778.63
2023-01-09T06:30:43.606Z,96785.44
2023-01-09T06:32:15.411Z,96776.19
2023-01-09T06:33:46.988Z,96794.53
2023-01-09T06:35:20.634Z,96789.34
2023-01-09T06:36:52.283Z,96787.56
2023-01-09T06:38:23.843Z,96789.81
2023-01-09T06:39:55.437Z,96793.72
2023-01-09T06:41:26.997Z,96794.69
2023-01-09T06:42:58.745Z,96793.06
2023-01-09T06:44:30.379Z,96800.88
2023-01-09T06:46:02.094Z,96793.56
2023-01-09T06:47:33.769Z,96788.56
2023-01-09T06:49:05.401Z,96791.78
2023-01-09T06:50:36.993Z,96789.84
2023-01-09T06:52:08.743Z,96793.91
2023-01-09T06:53:40.430Z,96797.78
2023-01-09T06:55:12.137Z,96801.34
2023-01-09T06:56:44.048Z,96800.22
2023-01-09T06:58:15.984Z,96811.44
2023-01-09T06:59:47.593Z,96799.56
2023-01-09T07:01:19.272Z,96799.91
2023-01-09T07:02:51.063Z,96801.88
2023-01-09T07:04:23.214Z,96800.72
2023-01-09T07:05:54.930Z,96803.00
2023-01-09T07:07:26.616Z,96805.44
2023-01-09T07:08:58.299Z,96800.53
2023-01-09T07:10:29.971Z,96809.31
2023-01-09T07:12:01.603Z,96807.22
2023-01-09T07:13:33.203Z,96805.56
2023-01-09T07:15:05.358Z,96799.91
2023-01-09T07:16:37.030Z,96803.66
2023-01-09T07:18:08.710Z,96805.44
2023-01-09T07:19:40.973Z,96809.97
2023-01-09T07:21:12.549Z,96814.84
2023-01-09T07:22:45.369Z,96815.34
2023-01-09T07:24:16.963Z,96821.00
2023-01-09T07:25:51.127Z,96831.41
2023-01-09T07:27:22.795Z,96827.00
2023-01-09T07:28:54.658Z,96833.81
2023-01-09T07:30:26.248Z,96840.00
2023-01-09T07:31:57.909Z,96836.59
2023-01-09T07:33:29.520Z,96836.25
2023-01-09T07:35:01.120Z,96839.19
2023-01-09T07:36:32.775Z,96833.69
2023-01-09T07:38:04.660Z,96843.75
2023-01-09T07:39:36.337Z,96836.59
2023-01-09T07:41:07.954Z,96840.84
2023-01-09T07:42:39.672Z,96847.31
2023-01-09T07:44:11.397Z,96845.38
2023-01-09T07:45:42.986Z,96837.59
2023-01-09T07:47:14.729Z,96839.03
2023-01-09T07:48:46.452Z,96846.00
2023-01-09T07:50:19.031Z,96838.22
2023-01-09T07:51:50.683Z,96854.13
2023-01-09T07:53:22.362Z,96849.75
2023-01-09T07:54:54.012Z,96850.56
2023-01-09T07:56:25.758Z,96856.25
2023-01-09T07:57:57.404Z,96853.66
2023-01-09T07:59:29.779Z,96858.03
2023-01-09T08:01:01.502Z,96854.28
2023-01-09T08:02:33.793Z,96864.22
2023-01-09T08:04:05.521Z,96860.00
2023-01-09T08:05:37.207Z,96859.19
2023-01-09T08:07:08.820Z,96863.88
2023-01-09T08:08:40.483Z,96864.69
2023-01-09T08:10:12.797Z,96866.47
2023-01-09T08:11:44.408Z,96863.72
2023-01-09T08:13:16.107Z,96861.13
2023-01-09T08:14:47.770Z,96858.38
2023-01-09T08:16:19.497Z,96860.16
2023-01-09T08:17:51.141Z,96857.22
2023-01-09T08:19:23.936Z,96859.19
2023-01-09T08:20:55.548Z,96860.00
2023-01-09T08:22:27.201Z,96868.63
2023-01-09T08:23:58.834Z,96868.28
2023-01-09T08:25:30.451Z,96874.13
2023-01-09T08:27:02.377Z,96879.63
2023-01-09T08:28:34.121Z,96876.56
2023-01-09T08:30:06.296Z,96875.41
2023-01-09T08:31:38.011Z,96880.94
2023-01-09T08:33:09.716Z,96884.03
2023-01-09T08:34:41.349Z,96877.34
2023-01-09T08:36:12.995Z,96874.50
2023-01-09T08:37:45.914Z,96869.25
2023-01-09T08:39:17.543Z,96871.03
2023-01-09T08:40:49.322Z,96863.53
2023-01-09T08:42:39.411Z,96864.38
2023-01-09T08:44:29.574Z,96853.66
2023-01-09T08:46:20.129Z,96852.13
2023-01-09T08:47:52.062Z,96851.44
2023-01-09T08:49:23.784Z,96844.47
2023-01-09T08:50:55.413Z,96852.25
2023-01-09T08:52:27.344Z,96846.78
2023-01-09T08:53:58.871Z,96848.25
2023-01-09T08:55:30.581Z,96857.88
2023-01-09T08:57:02.536Z,96848.44
2023-01-09T08:58:34.949Z,96850.88
2023-01-09T09:00:07.240Z,96853.66
2023-01-09T09:01:38.914Z,96860.47
2023-01-09T09:03:11.944Z,96857.19
2023-01-09T09:04:43.552Z,96858.19
2023-01-09T09:06:15.322Z,96859.13
2023-01-09T09:07:55.759Z,96874.84
2023-01-09T09:09:27.417Z,96869.06
2023-01-09T09:11:01.170Z,96868.81
2023-01-09T09:12:32.804Z,96859.66
2023-01-09T09:14:25.446Z,96868.66
2023-01-09T09:15:57.199Z,96864.81
2023-01-09T09:17:29.084Z,96865.41
2023-01-09T09:19:00.727Z,96869.13
2023-01-09T09:20:37.820Z,96869.13
2023-01-09T09:22:09.501Z,96866.41
2023-01-09T09:23:41.167Z,96859.91
2023-01-09T09:25:12.972Z,96856.34
2023-01-09T09:26:44.865Z,96856.28
2023-01-09T09:28:16.747Z,96855.75
2023-01-09T09:29:48.427Z,96855.41
2023-01-09T09:31:20.080Z,96858.63
2023-01-09T09:32:51.874Z,96862.41
2023-01-09T09:34:23.423Z,96854.66
2023-01-09T09:35:55.103Z,96853.75
2023-01-09T09:37:26.859Z,96856.44
2023-01-09T09:38:58.961Z,96854.84
2023-01-09T09:41:30.373Z,96858.50
2023-01-09T09:43:43.431Z,96859.97
2023-01-09T09:45:24.152Z,96867.09
2023-01-09T09:47:31.053Z,96877.63
2023-01-09T09:49:12.243Z,96871.88
2023-01-09T09:50:58.310Z,96865.53
2023-01-09T09:52:45.703Z,96870.50
2023-01-09T09:54:30.479Z,96875.63
2023-01-09T09:56:03.291Z,96870.88
2023-01-09T09:57:38.149Z,96877.16
2023-01-09T09:59:19.946Z,96875.44
2023-01-09T10:00:53.388Z,96878.13
2023-01-09T10:02:47.490Z,96863.63
2023-01-09T10:04:22.817Z,96863.13
2023-01-09T10:05:55.628Z,96861.75
2023-01-09T10:07:41.806Z,96857.28
2023-01-09T10:09:16.763Z,96856.81
2023-01-09T10:10:53.677Z,96858.91
2023-01-09T10:12:43.875Z,96861.81
2023-01-09T10:14:23.761Z,96861.75
2023-01-09T10:16:05.335Z,96860.59
2023-01-09T10:17:46.736Z,96849.22
2023-01-09T10:19:35.037Z,96850.78
2023-01-09T10:21:31.721Z,96851.44
2023-01-09T10:23:06.572Z,96847.72
2023-01-09T10:25:09.522Z,96854.59
2023-01-09T10:26:50.952Z,96852.25
2023-01-09T10:29:07.262Z,96858.59
2023-01-09T10:30:48.303Z,96856.56
2023-01-09T10:32:32.002Z,96855.00
2023-01-09T10:34:26.323Z,96852.84
2023-01-09T10:36:27.779Z,96851.16
2023-01-09T10:38:01.561Z,96844.94
2023-01-09T10:39:42.821Z,96846.28
2023-01-09T10:41:50.753Z,96849.53
2023-01-09T10:43:29.523Z,96837.63
2023-01-09T10:45:19.173Z,96843.50
2023-01-09T10:46:56.473Z,96835.22
2023-01-09T10:48:37.391Z,96827.09
2023-01-09T10:50:23.965Z,96825.38
2023-01-09T10:52:15.636Z,96831.63
2023-01-09T10:53:53.479Z,96820.81
2023-01-09T10:55:40.194Z,96824.59
2023-01-09T10:57:26.868Z,96817.47
2023-01-09T10:58:58.635Z,96819.56
2023-01-09T11:00:30.385Z,96817.31
2023-01-09T11:02:02.252Z,96820.47
2023-01-09T11:03:34.011Z,96812.81
2023-01-09T11:05:06.307Z,96810.13
2023-01-09T11:06:46.826Z,96811.34
2023-01-09T11:08:31.113Z,96817.94
2023-01-09T11:10:05.355Z,96818.66
2023-01-09T11:11:40.811Z,96814.34
2023-01-09T11:13:29.419Z,96818.84
2023-01-09T11:15:16.390Z,96812.63
2023-01-09T11:16:56.643Z,96818.66
2023-01-09T11:18:28.501Z,96816.16
2023-01-09T11:20:07.020Z,96816.41
2023-01-09T11:21:41.902Z,96811.34
2023-01-09T11:23:31.841Z,96800.38
2023-01-09T11:25:03.807Z,96814.13
2023-01-09T11:26:35.579Z,96803.78
2023-01-09T11:28:09.935Z,96802.47
2023-01-09T11:29:41.911Z,96801.56
2023-01-09T11:31:14.019Z,96805.28
2023-01-09T11:32:47.300Z,96795.06
2023-01-09T11:34:22.731Z,96801.97
2023-01-09T11:36:07.906Z,96788.66
2023-01-09T11:37:39.725Z,96795.44
2023-01-09T11:39:26.805Z,96797.44
2023-01-09T11:41:04.259Z,96790.22
2023-01-09T11:42:51.481Z,96794.00
2023-01-09T11:44:24.150Z,96785.22
2023-01-09T11:46:01.512Z,96777.63
2023-01-09T11:47:40.870Z,96782.63
2023-01-09T11:49:12.473Z,96787.28
2023-01-09T11:50:55.059Z,96786.75
2023-01-09T11:52:26.734Z,96783.56
2023-01-09T11:54:16.621Z,96786.16
2023-01-09T11:55:56.922Z,96781.31
2023-01-09T11:57:28.771Z,96781.00
2023-01-09T11:59:00.716Z,96780.25
2023-01-09T12:00:42.226Z,96772.97
2023-01-09T12:02:36.115Z,96782.25
2023-01-09T12:04:25.118Z,96785.25
2023-01-09T12:06:13.805Z,96781.44
2023-01-09T12:08:06.119Z,96779.13
2023-01-09T12:10:03.523Z,96776.38
2023-01-09T12:11:41.832Z,96778.09
2023-01-09T12:13:30.221Z,96775.59
2023-01-09T12:15:27.116Z,96778.31
2023-01-09T12:17:11.114Z,96779.03
2023-01-09T12:18:49.817Z,96780.69
2023-01-09T12:20:43.617Z,96774.34
2023-01-09T12:22:47.110Z,96784.75
2023-01-09T12:25:01.349Z,96785.81
2023-01-09T12:26:43.816Z,96784.28
2023-01-09T12:28:34.569Z,96796.25
2023-01-09T12:30:36.809Z,96792.81
2023-01-09T12:32:30.715Z,96797.53
2023-01-09T12:34:05.592Z,96806.97
2023-01-09T12:36:14.255Z,96806.53
2023-01-09T12:38:07.871Z,96804.09
2023-01-09T12:40:03.175Z,96801.09
2023-01-09T12:41:56.701Z,96808.59
2023-01-09T12:43:28.289Z,96827.25
2023-01-09T12:45:30.336Z,96826.00
2023-01-09T12:47:40.470Z,96814.56
2023-01-09T12:49:35.161Z,96824.63
2023-01-09T12:51:22.016Z,96826.94
2023-01-09T12:53:18.182Z,96836.91
2023-01-09T12:55:02.564Z,96843.16
2023-01-09T12:56:49.384Z,96839.34
2023-01-09T12:58:26.944Z,96836.19
2023-01-09T13:00:07.510Z,96833.88
2023-01-09T13:01:46.750Z,96819.34
2023-01-09T13:03:45.691Z,96827.56
2023-01-09T13:05:23.314Z,96822.13
2023-01-09T13:07:00.968Z,96827.28
2023-01-09T13:08:36.235Z,96832.44
2023-01-09T13:10:33.313Z,96827.56
2023-01-09T13:12:24.887Z,96828.81
2023-01-09T13:14:12.786Z,96829.09
2023-01-09T13:15:49.948Z,96827.91
2023-01-09T13:17:47.022Z,96832.16
2023-01-09T13:19:32.325Z,96824.22
2023-01-09T13:21:04.485Z,96835.75
2023-01-09T13:22:36.627Z,96831.81
2023-01-09T13:24:24.917Z,96845.19
2023-01-09T13:26:02.777Z,96852.88
2023-01-09T13:27:40.911Z,96845.75
2023-01-09T13:29:16.579Z,96856.56
2023-01-09T13:31:00.693Z,96850.38
2023-01-09T13:32:48.261Z,96855.69
2023-01-09T13:34:26.618Z,96858.41
2023-01-09T13:36:00.503Z,96854.56
2023-01-09T13:37:35.699Z,96852.06
2023-01-09T13:39:07.903Z,96861.97
2023-01-09T13:40:40.196Z,96854.13
2023-01-09T13:42:36.874Z,96858.44
2023-01-09T13:44:18.281Z,96864.56
2023-01-09T13:45:51.421Z,96863.75
2023-01-09T13:47:28.609Z,96859.88
2023-01-09T13:49:01.256Z,96866.72
2023-01-09T13:50:33.140Z,96871.13
2023-01-09T13:52:06.049Z,96882.47
2023-01-09T13:53:46.095Z,96878.63
2023-01-09T13:55:17.981Z,96882.63
2023-01-09T13:57:17.337Z,96887.31
2023-01-09T13:59:00.185Z,96889.59
2023-01-09T14:00:35.396Z,96892.75
2023-01-09T14:02:36.006Z,96888.03
2023-01-09T14:04:28.038Z,96890.47
2023-01-09T14:05:59.782Z,96892.34
2023-01-09T14:07:33.952Z,96881.44
2023-01-09T14:09:24.037Z,96884.09
2023-01-09T14:11:06.593Z,96890.22
2023-01-09T14:12:40.942Z,96890.84
2023-01-09T14:14:33.983Z,96892.19
2023-01-09T14:16:15.175Z,96897.47
2023-01-09T14:17:49.794Z,96901.69
2023-01-09T14:19:25.453Z,96908.09
2023-01-09T14:22:50.310Z,96920.97
2023-01-09T14:24:44.050Z,96921.78
2023-01-09T14:26:39.613Z,96922.28
2023-01-09T14:28:24.352Z,96925.53
2023-01-09T14:30:27.943Z,96928.44
2023-01-09T14:32:26.284Z,96935.41
2023-01-09T14:34:35.475Z,96942.13
2023-01-09T14:36:21.906Z,96932.69
2023-01-09T14:38:03.790Z,96930.78
2023-01-09T14:39:36.545Z,96934.34
2023-01-09T14:41:52.470Z,96935.63
2023-01-09T14:43:33.411Z,96930.25
2023-01-09T14:45:16.738Z,96934.19
2023-01-09T14:46:51.890Z,96947.84
2023-01-09T14:48:24.529Z,96938.41
2023-01-09T14:50:04.313Z,96953.22
2023-01-09T14:51:38.712Z,96947.31
2023-01-09T14:53:21.444Z,96953.31
2023-01-09T14:54:57.585Z,96954.47
2023-01-09T14:56:31.052Z,96969.97
2023-01-09T14:58:21.794Z,96967.34
2023-01-09T14:59:59.977Z,96966.56
2023-01-09T15:01:34.182Z,96975.84
2023-01-09T15:03:05.909Z,96975.50
2023-01-09T15:04:41.281Z,96977.94
2023-01-09T15:06:23.191Z,96975.50
2023-01-09T15:07:58.709Z,96987.53
2023-01-09T15:09:42.419Z,96989.03
2023-01-09T15:11:14.445Z,96988.72
2023-01-09T15:12:49.392Z,97002.53
2023-01-09T15:14:40.530Z,97010.19
2023-01-09T15:16:24.728Z,97021.22
2023-01-09T15:18:03.186Z,97024.19
2023-01-09T15:19:34.834Z,97026.63
2023-01-09T15:21:06.901Z,97031.28
2023-01-09T15:22:38.562Z,97033.25
2023-01-09T15:24:28.792Z,97038.09
2023-01-09T15:26:21.900Z,97044.63
2023-01-09T15:27:58.415Z,97049.97
2023-01-09T15:29:30.038Z,97044.78
2023-01-09T15:31:11.659Z,97047.53
2023-01-09T15:32:45.976Z,97045.56
2023-01-09T15:34:21.362Z,97040.69
2023-01-09T15:36:00.065Z,97039.06
2023-01-09T15:37:39.142Z,97042.31
2023-01-09T15:39:18.459Z,97052.84
2023-01-09T15:40:59.954Z,97045.69
2023-01-09T15:42:57.011Z,97056.34
2023-01-09T15:44:30.313Z,97066.78
2023-01-09T15:46:02.965Z,97059.28
2023-01-09T15:47:34.697Z,97063.31
2023-01-09T15:49:11.203Z,97069.75
2023-01-09T15:50:44.353Z,97071.84
2023-01-09T15:52:18.454Z,97064.66
2023-01-09T15:53:51.795Z,97078.75
2023-01-09T15:55:35.397Z,97075.75
2023-01-09T15:57:25.283Z,97077.97
2023-01-09T15:58:58.163Z,97077.00
2023-01-09T16:00:29.711Z,97076.06
2023-01-09T16:02:23.786Z,97070.16
2023-01-09T16:04:17.641Z,97078.94
2023-01-09T16:05:52.761Z,97076.53
2023-01-09T16:07:24.361Z,97090.81
2023-01-09T16:08:58.770Z,97086.63
2023-01-09T16:10:34.457Z,97086.59
2023-01-09T16:12:06.427Z,97094.06
2023-01-09T16:13:43.590Z,97093.91
2023-01-09T16:15:17.961Z,97100.59
2023-01-09T16:16:51.871Z,97094.41
2023-01-09T16:18:32.599Z,97097.03
2023-01-09T16:20:25.728Z,97104.97
2023-01-09T16:21:59.927Z,97111.66
2023-01-09T16:23:34.499Z,97115.69
2023-01-09T16:25:24.757Z,97107.72
2023-01-09T16:27:22.423Z,97102.53
2023-01-09T16:28:54.909Z,97119.13
2023-01-09T16:30:27.457Z,97108.72
2023-01-09T16:32:01.585Z,97116.19
2023-01-09T16:33:34.222Z,97119.09
2023-01-09T16:35:14.460Z,97117.31
2023-01-09T16:36:46.144Z,97126.84
2023-01-09T16:38:18.389Z,97123.28
2023-01-09T16:40:18.333Z,97128.47
2023-01-09T16:42:08.321Z,97131.25
2023-01-09T16:43:39.995Z,97133.38
2023-01-09T16:45:11.667Z,97143.47
2023-01-09T16:46:44.890Z,97151.72
2023-01-09T16:48:21.467Z,97151.03
2023-01-09T16:49:53.038Z,97164.19
2023-01-09T16:51:25.846Z,97157.63
2023-01-09T16:53:02.088Z,97165.22
2023-01-09T16:54:34.114Z,97162.66
2023-01-09T16:56:08.468Z,97163.78
2023-01-09T16:57:41.590Z,97165.38
2023-01-09T16:59:15.074Z,97168.78
2023-01-09T17:00:48.039Z,97170.44
2023-01-09T17:02:20.645Z,97166.81
